createdAt,value
2019-01-03T00:00:42.814Z,2.4
2019-01-03T00:01:44.197Z,2.4
2019-01-03T00:02:45.573Z,2.5
2019-01-03T00:03:46.968Z,2.5
2019-01-03T00:04:48.353Z,2.5
2019-01-03T00:05:49.731Z,2.4
2019-01-03T00:06:51.109Z,2.5
2019-01-03T00:07:52.488Z,2.5
2019-01-03T00:08:53.880Z,2.4
2019-01-03T00:09:55.261Z,2.5
2019-01-03T00:10:56.646Z,2.6
2019-01-03T00:11:58.026Z,2.5
2019-01-03T00:12:59.406Z,2.5
2019-01-03T00:14:01.935Z,2.7
2019-01-03T00:15:02.133Z,2.6
2019-01-03T00:16:03.514Z,2.6
2019-01-03T00:17:04.891Z,2.7
2019-01-03T00:18:06.272Z,2.8
2019-01-03T00:19:07.653Z,2.6
2019-01-03T00:20:09.031Z,2.8
2019-01-03T00:21:10.410Z,2.7
2019-01-03T00:22:11.792Z,2.7
2019-01-03T00:23:13.171Z,2.8
2019-01-03T00:24:14.546Z,2.8
2019-01-03T00:25:16.141Z,2.8
2019-01-03T00:26:17.608Z,2.8
2019-01-03T00:27:18.996Z,2.8
2019-01-03T00:28:20.377Z,2.9
2019-01-03T00:29:21.755Z,2.8
2019-01-03T00:30:23.133Z,2.9
2019-01-03T00:31:24.514Z,2.9
2019-01-03T00:32:25.893Z,3.0
2019-01-03T00:33:27.275Z,3.0
2019-01-03T00:34:28.655Z,2.9
2019-01-03T00:35:30.033Z,3.0
2019-01-03T00:36:31.411Z,3.0
2019-01-03T00:37:32.790Z,3.0
2019-01-03T00:38:34.172Z,3.0
2019-01-03T00:39:35.546Z,3.1
2019-01-03T00:40:36.937Z,2.9
2019-01-03T00:41:38.313Z,3.1
2019-01-03T00:42:39.690Z,3.0
2019-01-03T00:43:41.069Z,3.0
2019-01-03T00:44:42.447Z,3.1
2019-01-03T00:45:43.826Z,3.0
2019-01-03T00:46:45.204Z,3.1
2019-01-03T00:47:46.583Z,3.1
2019-01-03T00:48:47.961Z,3.1
2019-01-03T00:49:49.338Z,3.1
2019-01-03T00:50:50.734Z,3.1
2019-01-03T00:51:52.112Z,3.2
2019-01-03T00:52:53.496Z,3.2
2019-01-03T00:53:54.873Z,3.2
2019-01-03T00:54:56.251Z,3.2
2019-01-03T00:55:57.634Z,3.2
2019-01-03T00:56:59.011Z,3.3
2019-01-03T00:58:00.393Z,3.2
2019-01-03T00:59:01.775Z,3.2
2019-01-03T01:00:03.157Z,3.2
2019-01-03T01:01:04.538Z,3.3
2019-01-03T01:02:05.919Z,3.3
2019-01-03T01:03:07.294Z,3.3
2019-01-03T01:04:08.675Z,3.3
2019-01-03T01:05:10.054Z,3.3
2019-01-03T01:06:11.428Z,3.4
2019-01-03T01:07:12.809Z,3.4
2019-01-03T01:08:14.189Z,3.4
2019-01-03T01:09:15.566Z,3.3
2019-01-03T01:10:16.945Z,3.3
2019-01-03T01:11:18.325Z,3.3
2019-01-03T01:12:19.710Z,3.3
2019-01-03T01:13:21.090Z,3.3
2019-01-03T01:14:22.610Z,3.2
2019-01-03T01:15:24.105Z,3.3
2019-01-03T01:16:25.488Z,3.3
2019-01-03T01:17:26.865Z,3.2
2019-01-03T01:18:28.246Z,3.3
2019-01-03T01:19:29.624Z,3.3
2019-01-03T01:20:31.003Z,3.3
2019-01-03T01:21:32.386Z,3.2
2019-01-03T01:22:33.787Z,3.2
2019-01-03T01:23:35.176Z,3.3
2019-01-03T01:24:36.570Z,3.4
2019-01-03T01:25:37.946Z,3.4
2019-01-03T01:26:39.324Z,3.4
2019-01-03T01:27:40.708Z,3.4
2019-01-03T01:28:42.088Z,3.4
2019-01-03T01:29:43.466Z,3.4
2019-01-03T01:30:44.848Z,3.4
2019-01-03T01:31:46.223Z,3.3
2019-01-03T01:32:47.604Z,3.5
2019-01-03T01:33:48.987Z,3.4
2019-01-03T01:34:50.372Z,3.4
2019-01-03T01:35:51.757Z,3.3
2019-01-03T01:36:53.137Z,3.4
2019-01-03T01:37:54.518Z,3.4
2019-01-03T01:38:55.898Z,3.4
2019-01-03T01:39:57.276Z,3.4
2019-01-03T01:40:58.653Z,3.4
2019-01-03T01:42:00.037Z,3.5
2019-01-03T01:43:01.422Z,3.5
2019-01-03T01:44:02.804Z,3.5
2019-01-03T01:45:04.189Z,3.5
2019-01-03T01:46:05.898Z,3.5
2019-01-03T01:47:06.906Z,3.5
2019-01-03T01:48:08.296Z,3.5
2019-01-03T01:49:09.676Z,3.5
2019-01-03T01:50:11.055Z,3.5
2019-01-03T01:51:12.437Z,3.6
2019-01-03T01:52:13.821Z,3.5
2019-01-03T01:53:15.206Z,3.5
2019-01-03T01:54:16.595Z,3.5
2019-01-03T01:55:17.992Z,3.5
2019-01-03T01:56:19.371Z,3.5
2019-01-03T01:57:20.747Z,3.5
2019-01-03T01:58:22.128Z,3.5
2019-01-03T01:59:23.507Z,3.5
2019-01-03T02:00:24.888Z,3.5
2019-01-03T02:01:26.277Z,3.5
2019-01-03T02:02:27.687Z,3.5
2019-01-03T02:03:29.173Z,3.5
2019-01-03T02:04:30.674Z,3.5
2019-01-03T02:05:32.055Z,3.5
2019-01-03T02:06:33.440Z,3.5
2019-01-03T02:07:34.818Z,3.5
2019-01-03T02:08:36.217Z,3.5
2019-01-03T02:09:37.605Z,3.5
2019-01-03T02:10:38.987Z,3.5
2019-01-03T02:11:40.380Z,3.5
2019-01-03T02:12:41.809Z,3.5
2019-01-03T02:13:43.238Z,3.5
2019-01-03T02:14:44.619Z,3.5
2019-01-03T02:15:46.001Z,3.3
2019-01-03T02:16:47.386Z,3.4
2019-01-03T02:17:48.779Z,3.4
2019-01-03T02:18:50.172Z,3.3
2019-01-03T02:19:51.552Z,3.4
2019-01-03T02:20:52.956Z,3.4
2019-01-03T02:21:54.332Z,3.4
2019-01-03T02:22:55.724Z,3.4
2019-01-03T02:23:57.106Z,3.4
2019-01-03T02:24:58.492Z,3.5
2019-01-03T02:25:59.881Z,3.4
2019-01-03T02:27:01.266Z,3.5
2019-01-03T02:28:02.651Z,3.5
2019-01-03T02:29:04.034Z,3.5
2019-01-03T02:30:05.415Z,3.4
2019-01-03T02:31:06.792Z,3.5
2019-01-03T02:32:08.182Z,3.5
2019-01-03T02:33:09.574Z,3.6
2019-01-03T02:34:10.951Z,3.5
2019-01-03T02:35:12.351Z,3.7
2019-01-03T02:36:13.737Z,3.6
2019-01-03T02:37:15.123Z,3.5
2019-01-03T02:38:16.501Z,3.6
2019-01-03T02:39:17.883Z,3.7
2019-01-03T02:40:19.274Z,3.6
2019-01-03T02:41:20.668Z,3.6
2019-01-03T02:42:22.059Z,3.6
2019-01-03T02:43:23.450Z,3.6
2019-01-03T02:44:24.826Z,3.6
2019-01-03T02:45:26.235Z,3.7
2019-01-03T02:46:27.629Z,3.7
2019-01-03T02:47:29.015Z,3.7
2019-01-03T02:48:30.395Z,3.7
2019-01-03T02:49:31.772Z,3.7
2019-01-03T02:50:33.212Z,3.7
2019-01-03T02:51:34.600Z,3.7
2019-01-03T02:52:36.188Z,3.7
2019-01-03T02:53:37.604Z,3.7
2019-01-03T02:54:39.029Z,3.7
2019-01-03T02:55:40.423Z,3.7
2019-01-03T02:56:41.817Z,3.7
2019-01-03T02:57:43.184Z,3.7
2019-01-03T02:58:44.582Z,3.6
2019-01-03T02:59:45.968Z,3.5
2019-01-03T03:00:47.362Z,3.6
2019-01-03T03:01:48.761Z,3.6
2019-01-03T03:02:50.152Z,3.6
2019-01-03T03:03:51.537Z,3.7
2019-01-03T03:04:52.920Z,3.7
2019-01-03T03:05:54.311Z,3.7
2019-01-03T03:06:55.692Z,3.7
2019-01-03T03:07:57.087Z,3.7
2019-01-03T03:08:58.461Z,3.8
2019-01-03T03:09:59.864Z,3.7
2019-01-03T03:11:01.242Z,3.7
2019-01-03T03:12:02.627Z,3.6
2019-01-03T03:13:04.018Z,3.7
2019-01-03T03:14:05.405Z,3.7
2019-01-03T03:15:06.813Z,3.7
2019-01-03T03:16:08.236Z,3.6
2019-01-03T03:17:09.633Z,3.5
2019-01-03T03:18:11.018Z,3.7
2019-01-03T03:19:12.408Z,3.5
2019-01-03T03:20:13.795Z,3.6
2019-01-03T03:21:15.185Z,3.5
2019-01-03T03:22:16.598Z,3.5
2019-01-03T03:23:18.032Z,3.5
2019-01-03T03:24:19.425Z,3.6
2019-01-03T03:25:20.833Z,3.5
2019-01-03T03:26:22.207Z,3.6
2019-01-03T03:27:23.593Z,3.5
2019-01-03T03:28:24.974Z,3.5
2019-01-03T03:29:26.359Z,3.5
2019-01-03T03:30:27.741Z,3.5
2019-01-03T03:31:29.132Z,3.5
2019-01-03T03:32:30.523Z,3.5
2019-01-03T03:33:31.894Z,3.5
2019-01-03T03:34:33.284Z,3.6
2019-01-03T03:35:34.662Z,3.5
2019-01-03T03:36:36.049Z,3.5
2019-01-03T03:37:37.435Z,3.5
2019-01-03T03:38:38.822Z,3.5
2019-01-03T03:39:40.229Z,3.6
2019-01-03T03:40:41.683Z,3.5
2019-01-03T03:41:43.242Z,3.5
2019-01-03T03:42:44.629Z,3.5
2019-01-03T03:43:46.011Z,3.5
2019-01-03T03:44:47.425Z,3.5
2019-01-03T03:45:48.793Z,3.5
2019-01-03T03:46:50.175Z,3.5
2019-01-03T03:47:51.553Z,3.6
2019-01-03T03:48:52.936Z,3.5
2019-01-03T03:49:54.312Z,3.5
2019-01-03T03:50:55.705Z,3.6
2019-01-03T03:51:57.083Z,3.5
2019-01-03T03:52:58.469Z,3.5
2019-01-03T03:53:59.853Z,3.5
2019-01-03T03:55:01.248Z,3.5
2019-01-03T03:56:02.621Z,3.6
2019-01-03T03:57:04.019Z,3.5
2019-01-03T03:58:05.419Z,3.6
2019-01-03T03:59:06.796Z,3.7
2019-01-03T04:00:08.190Z,3.7
2019-01-03T04:01:09.572Z,3.7
2019-01-03T04:02:10.967Z,3.8
2019-01-03T04:03:12.363Z,3.7
2019-01-03T04:04:13.764Z,3.7
2019-01-03T04:05:15.139Z,3.7
2019-01-03T04:06:16.523Z,3.7
2019-01-03T04:07:17.896Z,3.7
2019-01-03T04:08:19.276Z,3.7
2019-01-03T04:09:20.654Z,3.7
2019-01-03T04:10:22.039Z,3.8
2019-01-03T04:11:23.414Z,3.7
2019-01-03T04:12:24.795Z,3.7
2019-01-03T04:13:26.205Z,3.7
2019-01-03T04:14:27.592Z,3.7
2019-01-03T04:15:28.976Z,3.8
2019-01-03T04:16:30.367Z,3.8
2019-01-03T04:17:31.750Z,3.8
2019-01-03T04:18:33.128Z,3.8
2019-01-03T04:19:34.506Z,3.8
2019-01-03T04:20:35.891Z,3.8
2019-01-03T04:21:37.266Z,3.9
2019-01-03T04:22:38.654Z,3.8
2019-01-03T04:23:40.026Z,3.8
2019-01-03T04:24:41.405Z,3.8
2019-01-03T04:25:42.786Z,3.9
2019-01-03T04:26:44.168Z,3.8
2019-01-03T04:27:45.551Z,3.9
2019-01-03T04:28:46.927Z,3.9
2019-01-03T04:29:48.369Z,3.9
2019-01-03T04:30:49.905Z,3.9
2019-01-03T04:31:51.273Z,3.9
2019-01-03T04:32:52.656Z,4.0
2019-01-03T04:33:54.033Z,4.0
2019-01-03T04:34:55.413Z,4.0
2019-01-03T04:35:56.815Z,4.0
2019-01-03T04:36:58.192Z,4.0
2019-01-03T04:37:59.580Z,3.9
2019-01-03T04:39:00.966Z,4.0
2019-01-03T04:40:02.342Z,4.0
2019-01-03T04:41:03.811Z,4.0
2019-01-03T04:42:05.189Z,4.0
2019-01-03T04:43:06.572Z,4.1
2019-01-03T04:44:07.952Z,4.0
2019-01-03T04:45:09.336Z,4.0
2019-01-03T04:46:10.717Z,4.0
2019-01-03T04:47:12.102Z,3.9
2019-01-03T04:48:13.483Z,4.0
2019-01-03T04:49:14.872Z,3.9
2019-01-03T04:50:16.251Z,4.0
2019-01-03T04:51:17.632Z,3.9
2019-01-03T04:52:19.012Z,3.9
2019-01-03T04:53:20.394Z,3.9
2019-01-03T04:54:21.777Z,3.9
2019-01-03T04:55:23.153Z,3.9
2019-01-03T04:56:24.533Z,4.0
2019-01-03T04:57:25.915Z,4.0
2019-01-03T04:58:27.293Z,4.0
2019-01-03T04:59:28.678Z,4.0
2019-01-03T05:00:30.058Z,3.9
2019-01-03T05:01:31.440Z,3.9
2019-01-03T05:02:32.817Z,3.8
2019-01-03T05:03:34.201Z,4.0
2019-01-03T05:04:35.585Z,3.8
2019-01-03T05:05:36.963Z,3.9
2019-01-03T05:06:38.342Z,3.8
2019-01-03T05:07:39.788Z,3.8
2019-01-03T05:08:41.104Z,3.9
2019-01-03T05:09:42.518Z,3.8
2019-01-03T05:10:43.861Z,3.8
2019-01-03T05:11:45.241Z,3.8
2019-01-03T05:12:46.629Z,3.9
2019-01-03T05:13:48.007Z,3.8
2019-01-03T05:14:49.453Z,3.9
2019-01-03T05:15:50.839Z,3.8
2019-01-03T05:16:52.219Z,3.9
2019-01-03T05:17:53.602Z,3.9
2019-01-03T05:18:54.979Z,3.9
2019-01-03T05:19:56.493Z,4.0
2019-01-03T05:20:57.928Z,4.0
2019-01-03T05:21:59.310Z,4.0
2019-01-03T05:23:00.688Z,4.0
2019-01-03T05:24:02.068Z,4.0
2019-01-03T05:25:03.450Z,4.0
2019-01-03T05:26:04.830Z,4.1
2019-01-03T05:27:06.211Z,4.0
2019-01-03T05:28:07.617Z,4.0
2019-01-03T05:29:08.987Z,4.0
2019-01-03T05:30:10.368Z,4.0
2019-01-03T05:31:11.747Z,4.0
2019-01-03T05:32:13.123Z,3.9
2019-01-03T05:33:14.501Z,4.0
2019-01-03T05:34:15.893Z,4.0
2019-01-03T05:35:17.277Z,3.9
2019-01-03T05:36:18.676Z,4.0
2019-01-03T05:37:20.045Z,4.0
2019-01-03T05:38:21.422Z,4.0
2019-01-03T05:39:22.813Z,4.0
2019-01-03T05:40:24.186Z,4.0
2019-01-03T05:41:25.566Z,4.0
2019-01-03T05:42:26.946Z,4.0
2019-01-03T05:43:28.343Z,4.0
2019-01-03T05:44:29.727Z,4.0
2019-01-03T05:45:31.108Z,4.0
2019-01-03T05:46:32.544Z,4.0
2019-01-03T05:47:33.876Z,4.0
2019-01-03T05:48:35.259Z,4.1
2019-01-03T05:49:36.636Z,4.0
2019-01-03T05:50:38.011Z,4.1
2019-01-03T05:51:39.389Z,4.0
2019-01-03T05:52:40.772Z,4.0
2019-01-03T05:53:42.152Z,4.0
2019-01-03T05:54:43.534Z,4.0
2019-01-03T05:55:44.910Z,4.0
2019-01-03T05:56:46.300Z,4.1
2019-01-03T05:57:47.682Z,4.0
2019-01-03T05:58:49.064Z,4.1
2019-01-03T05:59:50.447Z,4.1
2019-01-03T06:00:51.827Z,4.0
2019-01-03T06:01:53.210Z,4.0
2019-01-03T06:02:54.595Z,4.0
2019-01-03T06:03:55.969Z,4.0
2019-01-03T06:04:57.351Z,4.0
2019-01-03T06:05:58.733Z,3.9
2019-01-03T06:07:00.114Z,4.0
2019-01-03T06:08:01.497Z,4.0
2019-01-03T06:09:03.110Z,4.0
2019-01-03T06:10:04.551Z,4.1
2019-01-03T06:11:05.936Z,4.1
2019-01-03T06:12:07.316Z,4.0
2019-01-03T06:13:08.696Z,3.9
2019-01-03T06:14:10.080Z,4.0
2019-01-03T06:15:11.466Z,3.9
2019-01-03T06:16:12.847Z,4.0
2019-01-03T06:17:14.226Z,3.9
2019-01-03T06:18:15.605Z,3.9
2019-01-03T06:19:16.987Z,3.9
2019-01-03T06:20:18.360Z,3.9
2019-01-03T06:21:19.736Z,3.9
2019-01-03T06:22:21.119Z,3.8
2019-01-03T06:23:22.502Z,3.8
2019-01-03T06:24:23.883Z,3.8
2019-01-03T06:25:25.260Z,3.8
2019-01-03T06:26:26.640Z,3.8
2019-01-03T06:27:28.012Z,3.9
2019-01-03T06:28:29.399Z,3.8
2019-01-03T06:29:30.783Z,3.9
2019-01-03T06:30:32.163Z,3.8
2019-01-03T06:31:33.544Z,3.9
2019-01-03T06:32:34.974Z,3.8
2019-01-03T06:33:36.360Z,3.8
2019-01-03T06:34:37.739Z,3.8
2019-01-03T06:35:39.126Z,3.8
2019-01-03T06:36:40.533Z,3.9
2019-01-03T06:37:41.914Z,3.9
2019-01-03T06:38:43.301Z,3.9
2019-01-03T06:39:44.674Z,3.8
2019-01-03T06:40:46.054Z,3.8
2019-01-03T06:41:47.431Z,3.9
2019-01-03T06:42:48.822Z,3.9
2019-01-03T06:43:50.202Z,3.9
2019-01-03T06:44:51.606Z,3.8
2019-01-03T06:45:52.974Z,3.8
2019-01-03T06:46:54.358Z,3.8
2019-01-03T06:47:55.742Z,3.9
2019-01-03T06:48:58.472Z,3.8
2019-01-03T06:50:00.239Z,3.9
2019-01-03T06:51:01.617Z,4.0
2019-01-03T06:52:03.007Z,4.0
2019-01-03T06:53:04.386Z,3.9
2019-01-03T06:54:05.763Z,3.9
2019-01-03T06:55:07.144Z,4.0
2019-01-03T06:56:08.677Z,4.0
2019-01-03T06:57:10.090Z,4.0
2019-01-03T06:58:11.498Z,4.0
2019-01-03T06:59:12.878Z,4.0
2019-01-03T07:00:14.260Z,4.0
2019-01-03T07:01:15.865Z,4.0
2019-01-03T07:02:18.253Z,3.9
2019-01-03T07:03:20.767Z,4.0
2019-01-03T07:04:22.856Z,4.0
2019-01-03T07:05:24.942Z,4.0
2019-01-03T07:06:27.094Z,4.0
2019-01-03T07:07:28.502Z,3.9
2019-01-03T07:08:29.920Z,3.9
2019-01-03T07:09:31.325Z,4.0
2019-01-03T07:10:32.733Z,4.0
2019-01-03T07:11:34.114Z,4.0
2019-01-03T07:12:35.499Z,4.1
2019-01-03T07:13:36.887Z,4.1
2019-01-03T07:14:38.275Z,4.0
2019-01-03T07:15:39.770Z,4.0
2019-01-03T07:16:41.232Z,4.1
2019-01-03T07:17:42.614Z,4.0
2019-01-03T07:18:44.000Z,4.1
2019-01-03T07:19:45.394Z,4.1
2019-01-03T07:20:46.788Z,4.1
2019-01-03T07:21:48.172Z,4.1
2019-01-03T07:22:49.551Z,4.1
2019-01-03T07:23:50.933Z,4.1
2019-01-03T07:24:52.321Z,4.1
2019-01-03T07:25:53.709Z,4.1
2019-01-03T07:26:55.090Z,4.1
2019-01-03T07:27:56.484Z,4.1
2019-01-03T07:28:57.867Z,4.1
2019-01-03T07:29:59.266Z,4.2
2019-01-03T07:31:00.656Z,4.1
2019-01-03T07:32:02.093Z,4.1
2019-01-03T07:33:03.593Z,4.0
2019-01-03T07:34:04.957Z,4.2
2019-01-03T07:35:06.345Z,4.2
2019-01-03T07:36:07.729Z,4.1
2019-01-03T07:37:09.200Z,4.1
2019-01-03T07:38:10.674Z,4.1
2019-01-03T07:39:12.054Z,4.2
2019-01-03T07:40:13.440Z,4.1
2019-01-03T07:41:15.706Z,4.1
2019-01-03T07:42:17.090Z,4.1
2019-01-03T07:43:18.475Z,4.1
2019-01-03T07:44:19.853Z,4.1
2019-01-03T07:45:21.237Z,4.1
2019-01-03T07:46:22.622Z,4.1
2019-01-03T07:47:23.999Z,4.1
2019-01-03T07:48:25.400Z,4.1
2019-01-03T07:49:26.782Z,4.0
2019-01-03T07:50:28.166Z,4.1
2019-01-03T07:51:29.542Z,4.0
2019-01-03T07:52:30.921Z,4.0
2019-01-03T07:53:32.299Z,4.1
2019-01-03T07:54:33.679Z,4.2
2019-01-03T07:55:35.062Z,4.2
2019-01-03T07:56:36.468Z,4.1
2019-01-03T07:57:37.855Z,4.1
2019-01-03T07:58:39.235Z,4.1
2019-01-03T07:59:40.617Z,4.1
2019-01-03T08:00:42.045Z,4.1
2019-01-03T08:01:43.455Z,4.2
2019-01-03T08:02:45.756Z,4.1
2019-01-03T08:03:47.208Z,4.2
2019-01-03T08:04:48.654Z,4.1
2019-01-03T08:05:50.115Z,4.2
2019-01-03T08:06:51.552Z,4.1
2019-01-03T08:07:53.052Z,4.2
2019-01-03T08:08:54.528Z,4.3
2019-01-03T08:09:56.437Z,4.2
2019-01-03T08:10:57.994Z,4.2
2019-01-03T08:11:59.527Z,4.1
2019-01-03T08:13:00.950Z,4.2
2019-01-03T08:14:02.384Z,4.3
2019-01-03T08:15:03.770Z,4.3
2019-01-03T08:16:05.155Z,4.3
2019-01-03T08:17:06.542Z,4.4
2019-01-03T08:18:07.967Z,4.3
2019-01-03T08:19:09.348Z,4.3
2019-01-03T08:20:10.758Z,4.3
2019-01-03T08:21:12.215Z,4.4
2019-01-03T08:22:13.889Z,4.4
2019-01-03T08:23:15.331Z,4.4
2019-01-03T08:24:16.725Z,4.4
2019-01-03T08:25:18.106Z,4.3
2019-01-03T08:26:19.490Z,4.4
2019-01-03T08:27:20.873Z,4.4
2019-01-03T08:28:22.259Z,4.5
2019-01-03T08:29:23.651Z,4.4
2019-01-03T08:30:25.033Z,4.5
2019-01-03T08:31:26.523Z,4.5
2019-01-03T08:32:28.034Z,4.4
2019-01-03T08:33:29.451Z,4.4
2019-01-03T08:34:30.846Z,4.4
2019-01-03T08:35:32.226Z,4.5
2019-01-03T08:36:33.623Z,4.6
2019-01-03T08:37:35.019Z,4.5
2019-01-03T08:38:36.413Z,4.5
2019-01-03T08:39:37.808Z,4.5
2019-01-03T08:40:39.196Z,4.5
2019-01-03T08:41:40.574Z,4.6
2019-01-03T08:42:41.956Z,4.6
2019-01-03T08:43:43.478Z,4.6
2019-01-03T08:44:44.880Z,4.5
2019-01-03T08:45:46.383Z,4.6
2019-01-03T08:46:47.770Z,4.6
2019-01-03T08:47:49.154Z,4.7
2019-01-03T08:48:50.582Z,4.7
2019-01-03T08:49:52.243Z,4.6
2019-01-03T08:50:53.921Z,4.7
2019-01-03T08:51:55.606Z,4.6
2019-01-03T08:52:57.018Z,4.7
2019-01-03T08:53:58.416Z,4.7
2019-01-03T08:55:00.203Z,4.7
2019-01-03T08:56:01.417Z,4.8
2019-01-03T08:57:02.798Z,4.6
2019-01-03T08:58:04.183Z,4.7
2019-01-03T08:59:05.569Z,4.7
2019-01-03T09:00:06.953Z,4.7
2019-01-03T09:01:08.337Z,4.8
2019-01-03T09:02:09.721Z,4.8
2019-01-03T09:03:11.102Z,4.8
2019-01-03T09:04:12.482Z,4.8
2019-01-03T09:05:13.865Z,4.9
2019-01-03T09:06:15.248Z,4.8
2019-01-03T09:07:16.634Z,4.8
2019-01-03T09:08:18.018Z,4.8
2019-01-03T09:09:19.522Z,4.8
2019-01-03T09:10:20.933Z,4.9
2019-01-03T09:11:22.323Z,4.9
2019-01-03T09:12:23.702Z,4.9
2019-01-03T09:13:25.102Z,4.9
2019-01-03T09:14:26.488Z,5.0
2019-01-03T09:15:27.878Z,4.9
2019-01-03T09:16:29.261Z,4.9
2019-01-03T09:17:30.642Z,4.9
2019-01-03T09:18:32.024Z,4.9
2019-01-03T09:19:33.405Z,5.0
2019-01-03T09:20:34.788Z,5.1
2019-01-03T09:21:36.171Z,5.0
2019-01-03T09:22:37.550Z,5.0
2019-01-03T09:23:38.937Z,5.0
2019-01-03T09:24:40.315Z,4.9
2019-01-03T09:25:41.704Z,5.0
2019-01-03T09:26:43.089Z,5.0
2019-01-03T09:27:44.476Z,5.0
2019-01-03T09:28:45.860Z,5.0
2019-01-03T09:29:47.248Z,5.2
2019-01-03T09:30:48.633Z,5.1
2019-01-03T09:31:50.017Z,5.2
2019-01-03T09:32:51.402Z,5.2
2019-01-03T09:33:52.783Z,5.2
2019-01-03T09:34:54.167Z,5.1
2019-01-03T09:35:55.553Z,5.2
2019-01-03T09:36:56.978Z,5.1
2019-01-03T09:37:58.370Z,5.3
2019-01-03T09:38:59.756Z,5.2
2019-01-03T09:40:01.149Z,5.2
2019-01-03T09:41:02.523Z,5.3
2019-01-03T09:42:03.905Z,5.3
2019-01-03T09:43:05.293Z,5.3
2019-01-03T09:44:06.683Z,5.3
2019-01-03T09:45:08.072Z,5.3
2019-01-03T09:46:09.460Z,5.3
2019-01-03T09:47:10.843Z,5.3
2019-01-03T09:48:12.228Z,5.4
2019-01-03T09:49:13.614Z,5.4
2019-01-03T09:50:15.000Z,5.4
2019-01-03T09:51:16.386Z,5.4
2019-01-03T09:52:17.772Z,5.5
2019-01-03T09:53:19.153Z,5.5
2019-01-03T09:54:20.543Z,5.5
2019-01-03T09:55:21.927Z,5.6
2019-01-03T09:56:23.311Z,5.5
2019-01-03T09:57:24.696Z,5.4
2019-01-03T09:58:26.400Z,5.6
2019-01-03T09:59:27.882Z,5.5
2019-01-03T10:00:29.263Z,5.5
2019-01-03T10:01:30.648Z,5.5
2019-01-03T10:02:32.031Z,5.5
2019-01-03T10:03:33.414Z,5.6
2019-01-03T10:04:34.831Z,5.6
2019-01-03T10:05:36.218Z,5.7
2019-01-03T10:06:37.608Z,5.7
2019-01-03T10:07:38.992Z,5.5
2019-01-03T10:08:40.377Z,5.5
2019-01-03T10:09:41.762Z,5.7
2019-01-03T10:10:43.145Z,5.7
2019-01-03T10:11:44.533Z,5.7
2019-01-03T10:12:45.922Z,5.7
2019-01-03T10:13:47.309Z,5.8
2019-01-03T10:14:48.692Z,5.9
2019-01-03T10:15:50.075Z,5.8
2019-01-03T10:16:51.632Z,6.0
2019-01-03T10:17:53.031Z,5.9
2019-01-03T10:18:54.418Z,6.0
2019-01-03T10:19:55.801Z,6.2
2019-01-03T10:20:57.188Z,6.2
2019-01-03T10:21:58.569Z,6.2
2019-01-03T10:22:59.956Z,6.4
2019-01-03T10:24:01.344Z,6.3
2019-01-03T10:25:02.729Z,6.2
2019-01-03T10:26:04.560Z,6.4
2019-01-03T10:27:05.466Z,6.4
2019-01-03T10:28:06.859Z,6.5
2019-01-03T10:29:08.243Z,6.4
2019-01-03T10:30:09.626Z,6.4
2019-01-03T10:31:11.344Z,6.5
2019-01-03T10:32:12.360Z,6.5
2019-01-03T10:33:13.751Z,6.4
2019-01-03T10:34:15.137Z,6.5
2019-01-03T10:35:16.565Z,6.7
2019-01-03T10:36:24.049Z,6.7
2019-01-03T10:37:19.333Z,6.7
2019-01-03T10:38:21.050Z,6.7
2019-01-03T10:39:22.065Z,6.8
2019-01-03T10:40:23.453Z,6.7
2019-01-03T10:41:24.838Z,6.7
2019-01-03T10:42:26.225Z,6.6
2019-01-03T10:43:27.615Z,6.7
2019-01-03T10:44:29.003Z,6.7
2019-01-03T10:45:30.388Z,6.7
2019-01-03T10:46:31.774Z,6.6
2019-01-03T10:47:33.446Z,6.6
2019-01-03T10:48:35.109Z,6.6
2019-01-03T10:49:36.617Z,6.6
2019-01-03T10:50:38.004Z,6.6
2019-01-03T10:51:39.389Z,6.5
2019-01-03T10:52:40.772Z,6.5
2019-01-03T10:53:42.158Z,6.6
2019-01-03T10:54:43.545Z,6.5
2019-01-03T10:55:44.934Z,6.6
2019-01-03T10:56:46.324Z,6.7
2019-01-03T10:57:47.729Z,6.7
2019-01-03T10:58:49.115Z,6.8
2019-01-03T10:59:50.979Z,6.9
2019-01-03T11:00:51.854Z,6.8
2019-01-03T11:01:53.238Z,6.8
2019-01-03T11:02:54.624Z,6.8
2019-01-03T11:03:56.020Z,6.7
2019-01-03T11:04:57.415Z,6.8
2019-01-03T11:05:58.867Z,6.8
2019-01-03T11:07:00.254Z,6.9
2019-01-03T11:08:01.640Z,6.8
2019-01-03T11:09:03.310Z,6.8
2019-01-03T11:10:04.687Z,6.9
2019-01-03T11:11:06.121Z,6.8
2019-01-03T11:12:07.575Z,6.9
2019-01-03T11:13:08.974Z,6.9
2019-01-03T11:14:10.395Z,6.7
2019-01-03T11:15:11.981Z,6.7
2019-01-03T11:16:13.383Z,6.7
2019-01-03T11:17:15.074Z,6.7
2019-01-03T11:18:16.473Z,6.7
2019-01-03T11:19:17.890Z,6.8
2019-01-03T11:20:19.294Z,6.8
2019-01-03T11:21:21.860Z,6.9
2019-01-03T11:22:22.054Z,7.0
2019-01-03T11:23:23.441Z,6.9
2019-01-03T11:24:24.829Z,6.9
2019-01-03T11:25:26.225Z,6.8
2019-01-03T11:26:27.610Z,6.8
2019-01-03T11:27:29.084Z,6.9
2019-01-03T11:28:30.467Z,6.8
2019-01-03T11:29:31.857Z,6.8
2019-01-03T11:30:33.239Z,6.8
2019-01-03T11:31:34.629Z,6.9
2019-01-03T11:32:36.015Z,6.9
2019-01-03T11:33:37.396Z,6.8
2019-01-03T11:34:38.951Z,6.8
2019-01-03T11:35:40.453Z,6.7
2019-01-03T11:36:42.275Z,6.8
2019-01-03T11:37:43.703Z,6.8
2019-01-03T11:38:45.092Z,6.7
2019-01-03T11:39:46.481Z,6.7
2019-01-03T11:40:47.866Z,6.7
2019-01-03T11:41:49.249Z,6.7
2019-01-03T11:42:50.634Z,6.7
2019-01-03T11:43:52.023Z,6.6
2019-01-03T11:44:53.410Z,6.6
2019-01-03T11:45:54.804Z,6.6
2019-01-03T11:46:56.193Z,6.7
2019-01-03T11:47:57.576Z,6.7
2019-01-03T11:48:58.981Z,6.6
2019-01-03T11:50:00.386Z,6.6
2019-01-03T11:51:01.772Z,6.6
2019-01-03T11:52:03.166Z,6.4
2019-01-03T11:53:04.555Z,6.5
2019-01-03T11:54:05.944Z,6.5
2019-01-03T11:55:07.325Z,6.6
2019-01-03T11:56:08.712Z,6.7
2019-01-03T11:57:10.100Z,6.7
2019-01-03T11:58:11.755Z,6.8
2019-01-03T11:59:12.869Z,6.8
2019-01-03T12:00:14.264Z,7.0
2019-01-03T12:01:15.644Z,7.0
2019-01-03T12:02:17.027Z,7.0
2019-01-03T12:03:18.412Z,7.0
2019-01-03T12:04:19.794Z,6.9
2019-01-03T12:05:21.179Z,7.0
2019-01-03T12:06:22.629Z,7.0
2019-01-03T12:07:24.016Z,7.0
2019-01-03T12:08:25.403Z,6.8
2019-01-03T12:09:26.793Z,7.0
2019-01-03T12:10:28.175Z,7.0
2019-01-03T12:11:29.560Z,6.9
2019-01-03T12:12:30.949Z,7.1
2019-01-03T12:13:32.338Z,7.2
2019-01-03T12:14:33.726Z,7.4
2019-01-03T12:15:35.124Z,7.4
2019-01-03T12:16:36.621Z,7.6
2019-01-03T12:17:38.006Z,7.7
2019-01-03T12:18:39.392Z,7.7
2019-01-03T12:19:40.785Z,7.7
2019-01-03T12:20:42.197Z,7.9
2019-01-03T12:21:43.590Z,7.9
2019-01-03T12:22:45.137Z,8.2
2019-01-03T12:23:46.607Z,8.4
2019-01-03T12:24:47.999Z,8.6
2019-01-03T12:25:49.384Z,9.0
2019-01-03T12:26:50.774Z,9.0
2019-01-03T12:27:52.163Z,8.9
2019-01-03T12:28:53.553Z,8.8
2019-01-03T12:29:54.938Z,8.9
2019-01-03T12:30:56.324Z,8.8
2019-01-03T12:31:57.711Z,8.8
2019-01-03T12:32:59.102Z,8.7
2019-01-03T12:34:00.518Z,8.8
2019-01-03T12:35:01.911Z,8.8
2019-01-03T12:36:03.296Z,9.2
2019-01-03T12:37:04.686Z,9.2
2019-01-03T12:38:06.084Z,9.0
2019-01-03T12:39:07.473Z,9.0
2019-01-03T12:40:08.858Z,9.0
2019-01-03T12:41:10.243Z,9.0
2019-01-03T12:42:11.633Z,9.0
2019-01-03T12:43:13.026Z,9.2
2019-01-03T12:44:14.412Z,9.1
2019-01-03T12:45:15.796Z,9.2
2019-01-03T12:46:17.186Z,9.0
2019-01-03T12:47:18.577Z,9.0
2019-01-03T12:48:19.963Z,8.9
2019-01-03T12:49:21.352Z,9.0
2019-01-03T12:50:22.742Z,8.9
2019-01-03T12:51:24.127Z,8.8
2019-01-03T12:52:25.519Z,8.6
2019-01-03T12:53:26.902Z,8.6
2019-01-03T12:54:28.293Z,8.6
2019-01-03T12:55:29.676Z,8.5
2019-01-03T12:56:31.064Z,8.4
2019-01-03T12:57:32.454Z,8.3
2019-01-03T12:58:33.847Z,8.4
2019-01-03T12:59:35.231Z,8.3
2019-01-03T13:00:36.619Z,8.3
2019-01-03T13:01:38.010Z,8.3
2019-01-03T13:02:39.398Z,8.2
2019-01-03T13:03:40.781Z,8.1
2019-01-03T13:04:42.252Z,8.0
2019-01-03T13:05:43.628Z,7.9
2019-01-03T13:06:45.013Z,7.8
2019-01-03T13:07:46.399Z,7.9
2019-01-03T13:08:47.782Z,7.8
2019-01-03T13:09:49.165Z,7.7
2019-01-03T13:10:50.550Z,7.7
2019-01-03T13:11:52.061Z,7.5
2019-01-03T13:12:53.599Z,7.5
2019-01-03T13:13:54.980Z,7.4
2019-01-03T13:14:56.364Z,7.3
2019-01-03T13:15:57.750Z,7.2
2019-01-03T13:16:59.136Z,7.1
2019-01-03T13:18:00.519Z,7.0
2019-01-03T13:19:01.907Z,7.0
2019-01-03T13:20:03.346Z,7.0
2019-01-03T13:21:04.741Z,7.0
2019-01-03T13:22:06.130Z,7.0
2019-01-03T13:23:07.513Z,7.0
2019-01-03T13:24:08.909Z,7.0
2019-01-03T13:25:10.283Z,7.1
2019-01-03T13:26:11.668Z,7.0
2019-01-03T13:27:13.055Z,7.0
2019-01-03T13:28:14.439Z,7.0
2019-01-03T13:29:15.821Z,7.0
2019-01-03T13:30:17.207Z,7.0
2019-01-03T13:31:18.590Z,7.0
2019-01-03T13:32:19.975Z,7.0
2019-01-03T13:33:21.384Z,7.0
2019-01-03T13:34:22.770Z,7.0
2019-01-03T13:35:24.153Z,7.0
2019-01-03T13:36:25.535Z,7.0
2019-01-03T13:37:26.917Z,7.1
2019-01-03T13:38:28.305Z,7.0
2019-01-03T13:39:29.702Z,7.1
2019-01-03T13:40:31.091Z,7.0
2019-01-03T13:41:32.474Z,7.1
2019-01-03T13:42:33.856Z,7.0
2019-01-03T13:43:35.240Z,7.0
2019-01-03T13:44:36.625Z,7.0
2019-01-03T13:45:38.029Z,7.1
2019-01-03T13:46:39.414Z,7.1
2019-01-03T13:47:40.798Z,7.0
2019-01-03T13:48:42.197Z,7.0
2019-01-03T13:49:43.587Z,7.0
2019-01-03T13:50:44.969Z,7.1
2019-01-03T13:51:46.355Z,7.1
2019-01-03T13:52:47.742Z,7.0
2019-01-03T13:53:49.129Z,7.1
2019-01-03T13:54:50.513Z,7.1
2019-01-03T13:55:51.901Z,7.1
2019-01-03T13:56:53.286Z,7.0
2019-01-03T13:57:54.672Z,7.0
2019-01-03T13:58:56.057Z,6.9
2019-01-03T13:59:57.442Z,7.0
2019-01-03T14:00:58.861Z,7.0
2019-01-03T14:02:00.434Z,6.9
2019-01-03T14:03:01.868Z,6.9
2019-01-03T14:04:03.249Z,6.9
2019-01-03T14:05:04.638Z,6.9
2019-01-03T14:06:06.026Z,7.0